createdAt,value
2023-01-17T00:03:32.863Z,4.00
2023-01-17T00:08:34.584Z,4.00
2023-01-17T00:13:37.774Z,4.10
2023-01-17T00:18:39.418Z,4.10
2023-01-17T00:23:41.138Z,4.10
2023-01-17T00:28:44.750Z,4.10
2023-01-17T00:33:46.485Z,4.10
2023-01-17T00:38:48.155Z,4.00
2023-01-17T00:43:51.191Z,4.00
2023-01-17T00:48:52.882Z,4.00
2023-01-17T00:53:54.617Z,3.90
2023-01-17T00:58:57.719Z,3.90
2023-01-17T01:03:59.372Z,3.90
2023-01-17T01:09:01.115Z,3.90
2023-01-17T01:14:04.865Z,3.80
2023-01-17T01:19:06.525Z,3.80
2023-01-17T01:24:08.231Z,3.70
2023-01-17T01:29:11.348Z,3.60
2023-01-17T01:34:13.078Z,3.40
2023-01-17T01:39:14.812Z,3.30
2023-01-17T01:44:47.342Z,3.30
2023-01-17T01:49:50.342Z,3.30
2023-01-17T01:54:55.248Z,3.20
2023-01-17T02:00:02.083Z,3.20
2023-01-17T02:05:04.982Z,3.30
2023-01-17T02:10:07.032Z,3.30
2023-01-17T02:15:10.944Z,3.20
2023-01-17T02:20:33.822Z,3.30
2023-01-17T02:26:04.253Z,3.30
2023-01-17T02:31:12.287Z,3.20
2023-01-17T02:36:21.281Z,3.20
2023-01-17T02:41:29.283Z,3.30
2023-01-17T02:46:32.445Z,3.20
2023-01-17T02:51:51.189Z,3.10
2023-01-17T02:57:06.548Z,3.20
2023-01-17T03:07:33.949Z,3.00
2023-01-17T03:12:38.128Z,2.90
2023-01-17T03:17:46.318Z,2.90
2023-01-17T03:22:48.117Z,2.80
2023-01-17T03:27:49.777Z,2.70
2023-01-17T03:32:52.909Z,2.80
2023-01-17T03:37:54.666Z,2.70
2023-01-17T03:42:56.349Z,2.60
2023-01-17T03:47:59.687Z,2.50
2023-01-17T03:53:01.414Z,2.40
2023-01-17T03:58:03.165Z,2.40
2023-01-17T04:03:06.278Z,2.30
2023-01-17T04:08:08.115Z,2.20
2023-01-17T04:13:12.989Z,2.20
2023-01-17T04:18:17.263Z,2.20
2023-01-17T04:23:19.150Z,2.20
2023-01-17T04:28:20.883Z,2.20
2023-01-17T04:33:24.022Z,2.20
2023-01-17T04:38:25.900Z,2.10
2023-01-17T04:43:27.604Z,1.90
2023-01-17T04:48:31.080Z,1.90
2023-01-17T04:53:32.848Z,2.00
2023-01-17T04:58:34.959Z,1.90
2023-01-17T05:03:38.666Z,1.80
2023-01-17T05:08:40.719Z,1.70
2023-01-17T05:13:42.458Z,1.70
2023-01-17T05:19:03.357Z,1.80
2023-01-17T05:24:05.764Z,1.70
2023-01-17T05:29:07.503Z,1.60
2023-01-17T05:34:10.729Z,1.70
2023-01-17T05:39:12.399Z,1.70
2023-01-17T05:44:14.118Z,1.60
2023-01-17T05:49:17.183Z,1.60
2023-01-17T05:54:18.979Z,1.60
2023-01-17T05:59:35.965Z,1.50
2023-01-17T06:04:39.912Z,1.60
2023-01-17T06:09:41.657Z,1.60
2023-01-17T06:14:43.404Z,1.70
2023-01-17T06:19:46.483Z,1.70
2023-01-17T06:24:48.301Z,1.80
2023-01-17T06:29:49.974Z,2.00
2023-01-17T06:34:53.078Z,2.00
2023-01-17T06:39:54.755Z,1.90
2023-01-17T06:44:56.433Z,1.90
2023-01-17T06:49:59.483Z,1.80
2023-01-17T06:55:01.411Z,1.80
2023-01-17T07:00:04.533Z,1.70
2023-01-17T07:05:08.190Z,1.60
2023-01-17T07:10:10.880Z,1.50
2023-01-17T07:15:13.382Z,1.50
2023-01-17T07:20:16.674Z,1.60
2023-01-17T07:25:18.356Z,1.60
2023-01-17T07:30:20.316Z,1.70
2023-01-17T07:35:24.457Z,1.70
2023-01-17T07:40:26.201Z,1.70
2023-01-17T07:45:28.193Z,1.60
2023-01-17T07:50:31.247Z,1.30
2023-01-17T07:55:33.133Z,1.30
2023-01-17T08:00:34.902Z,1.30
2023-01-17T08:05:38.051Z,1.30
2023-01-17T08:10:39.701Z,1.10
2023-01-17T08:15:41.476Z,0.90
2023-01-17T08:20:45.241Z,0.70
2023-01-17T08:25:46.930Z,0.60
2023-01-17T08:30:48.613Z,0.60
2023-01-17T08:35:55.118Z,0.60
2023-01-17T08:41:00.304Z,0.70
2023-01-17T08:46:02.079Z,0.80
2023-01-17T08:51:05.904Z,0.70
2023-01-17T08:56:07.935Z,0.70
2023-01-17T09:01:09.779Z,1.00
2023-01-17T09:06:14.643Z,1.20
2023-01-17T09:11:16.916Z,1.30
2023-01-17T09:16:18.609Z,1.40
2023-01-17T09:21:21.888Z,1.60
2023-01-17T09:26:25.415Z,1.60
2023-01-17T09:31:28.110Z,1.70
2023-01-17T09:36:31.214Z,1.90
2023-01-17T09:41:34.834Z,2.10
2023-01-17T09:46:41.034Z,2.30
2023-01-17T09:51:44.185Z,2.60
2023-01-17T09:56:52.343Z,2.80
2023-01-17T10:02:02.081Z,3.00
2023-01-17T10:07:17.876Z,3.30
2023-01-17T10:12:30.400Z,3.70
2023-01-17T10:17:39.691Z,4.00
2023-01-17T10:23:01.333Z,4.40
2023-01-17T10:28:06.095Z,4.70
2023-01-17T10:33:14.844Z,4.80
2023-01-17T10:38:29.052Z,4.90
2023-01-17T10:43:42.248Z,5.20
2023-01-17T10:48:46.254Z,5.50
2023-01-17T10:54:02.111Z,5.60
2023-01-17T10:59:18.766Z,5.40
2023-01-17T11:04:23.439Z,4.90
2023-01-17T11:09:38.312Z,4.60
2023-01-17T11:14:40.184Z,4.30
2023-01-17T11:19:41.936Z,4.10
2023-01-17T11:24:52.630Z,3.90
2023-01-17T11:30:13.502Z,3.80
2023-01-17T11:35:18.531Z,3.90
2023-01-17T11:40:29.125Z,4.00
2023-01-17T11:45:32.327Z,4.00
2023-01-17T11:50:35.448Z,4.50
2023-01-17T11:55:38.533Z,4.80
2023-01-17T12:00:45.504Z,4.80
2023-01-17T12:05:56.818Z,4.90
2023-01-17T12:11:08.916Z,5.30
2023-01-17T12:16:21.901Z,5.60
2023-01-17T12:21:36.651Z,5.80
2023-01-17T12:26:42.960Z,6.00
2023-01-17T12:31:58.366Z,6.10
2023-01-17T12:37:02.978Z,6.30
2023-01-17T12:42:11.909Z,6.60
2023-01-17T12:47:15.671Z,6.60
2023-01-17T12:52:25.226Z,6.60
2023-01-17T12:57:34.901Z,6.30
2023-01-17T13:02:41.452Z,6.20
2023-01-17T13:07:49.390Z,6.10
2023-01-17T13:12:54.337Z,5.50
2023-01-17T13:17:59.617Z,5.30
2023-01-17T13:23:11.588Z,5.30
2023-01-17T13:28:22.350Z,5.40
2023-01-17T13:33:35.538Z,5.50
2023-01-17T13:38:55.590Z,5.50
2023-01-17T13:44:00.341Z,5.70
2023-01-17T13:49:21.681Z,5.50
2023-01-17T13:54:31.977Z,5.20
2023-01-17T13:59:35.015Z,5.10
2023-01-17T14:05:12.251Z,4.80
2023-01-17T14:10:37.138Z,4.60
2023-01-17T14:15:49.719Z,4.60
2023-01-17T14:21:04.897Z,4.60
2023-01-17T14:26:43.006Z,4.40
2023-01-17T14:31:46.820Z,4.10
2023-01-17T14:36:48.938Z,4.10
2023-01-17T14:41:51.651Z,3.80
2023-01-17T14:46:54.729Z,3.80
2023-01-17T14:52:00.583Z,3.60
2023-01-17T14:57:14.782Z,3.40
2023-01-17T15:02:18.409Z,3.30
2023-01-17T15:07:20.350Z,3.20
2023-01-17T15:12:22.104Z,3.10
2023-01-17T15:17:25.195Z,3.20
2023-01-17T15:22:28.072Z,3.10
2023-01-17T15:27:30.076Z,3.00
2023-01-17T15:32:33.193Z,2.90
2023-01-17T15:37:37.629Z,2.80
2023-01-17T15:42:42.786Z,2.60
2023-01-17T15:47:48.475Z,2.10
2023-01-17T15:52:51.947Z,1.70
2023-01-17T15:57:53.704Z,1.30
2023-01-17T16:02:56.806Z,1.10
2023-01-17T16:08:24.914Z,0.90
2023-01-17T16:13:26.789Z,0.60
2023-01-17T16:18:30.067Z,0.40
2023-01-17T16:23:34.911Z,0.10
2023-01-17T16:28:36.652Z,0.00
2023-01-17T16:33:39.788Z,-0.10
2023-01-17T16:38:41.680Z,-0.20
2023-01-17T16:43:43.379Z,-0.30
2023-01-17T16:48:46.425Z,-0.30
2023-01-17T16:54:06.084Z,-0.30
2023-01-17T16:59:07.722Z,-0.50
2023-01-17T17:04:12.488Z,-0.70
2023-01-17T17:09:14.260Z,-0.80
2023-01-17T17:14:15.951Z,-0.90
2023-01-17T17:19:19.551Z,-1.00
2023-01-17T17:24:21.249Z,-1.10
2023-01-17T17:29:22.967Z,-1.20
2023-01-17T17:34:26.146Z,-1.30
2023-01-17T17:39:27.864Z,-1.20
2023-01-17T17:44:29.560Z,-1.20
2023-01-17T17:49:32.768Z,-1.20
2023-01-17T17:54:35.113Z,-1.00
2023-01-17T17:59:43.116Z,-0.90
2023-01-17T18:04:57.175Z,-1.00
2023-01-17T18:28:08.953Z,-1.20
2023-01-17T18:33:10.765Z,-1.10
2023-01-17T18:38:12.489Z,-1.20
2023-01-17T18:43:15.553Z,-1.20
2023-01-17T18:48:17.295Z,-1.20
2023-01-17T18:53:19.095Z,-1.20
2023-01-17T18:58:22.952Z,-1.30
2023-01-17T19:03:26.727Z,-1.30
2023-01-17T19:08:29.178Z,-1.40
2023-01-17T19:13:35.407Z,-1.40
2023-01-17T19:18:37.161Z,-1.40
2023-01-17T19:23:39.284Z,-1.40
2023-01-17T19:28:43.774Z,-1.40
2023-01-17T19:33:45.728Z,-1.40
2023-01-17T19:39:02.972Z,-1.40
2023-01-17T19:44:10.243Z,-1.50
2023-01-17T19:49:16.851Z,-1.60
2023-01-17T19:54:18.598Z,-1.60
2023-01-17T19:59:21.756Z,-1.60
2023-01-17T20:04:23.453Z,-1.70
2023-01-17T20:09:25.570Z,-1.80
2023-01-17T20:14:28.998Z,-1.90
2023-01-17T20:19:31.283Z,-1.80
2023-01-17T20:24:33.412Z,-1.70
2023-01-17T20:29:37.196Z,-1.60
2023-01-17T20:34:39.096Z,-1.50
2023-01-17T20:39:40.810Z,-1.40
2023-01-17T20:44:43.921Z,-1.30
2023-01-17T20:49:45.715Z,-1.20
2023-01-17T20:54:47.354Z,-1.00
2023-01-17T20:59:50.340Z,-0.90
2023-01-17T21:04:52.327Z,-0.80
2023-01-17T21:09:54.104Z,-0.80
2023-01-17T21:14:57.663Z,-0.70
2023-01-17T21:19:59.464Z,-0.70
2023-01-17T21:25:01.262Z,-0.80
2023-01-17T21:30:05.276Z,-0.70
2023-01-17T21:35:07.553Z,-0.80
2023-01-17T21:40:10.813Z,-0.80
2023-01-17T21:45:14.155Z,-0.80
2023-01-17T21:50:32.102Z,-0.80
2023-01-17T21:55:34.715Z,-0.70
2023-01-17T22:00:37.842Z,-0.60
2023-01-17T22:05:39.528Z,-0.50
2023-01-17T22:10:42.060Z,-0.40
2023-01-17T22:15:46.214Z,-0.40
2023-01-17T22:20:48.017Z,-0.40
2023-01-17T22:25:49.683Z,-0.40
2023-01-17T22:30:52.832Z,-0.50
2023-01-17T22:35:58.107Z,-0.50
2023-01-17T22:41:04.174Z,-0.50
2023-01-17T22:46:08.756Z,-0.50
2023-01-17T22:51:12.598Z,-0.50
2023-01-17T22:56:16.473Z,-0.50
2023-01-17T23:01:21.810Z,-0.50
2023-01-17T23:06:26.304Z,-0.50
2023-01-17T23:11:28.772Z,-0.50
2023-01-17T23:16:32.014Z,-0.50
2023-01-17T23:21:33.749Z,-0.50
2023-01-17T23:26:36.364Z,-0.70
2023-01-17T23:31:39.433Z,-0.70
2023-01-17T23:36:41.131Z,-0.80
2023-01-17T23:41:42.808Z,-0.80
2023-01-17T23:46:45.913Z,-0.70
2023-01-17T23:51:47.604Z,-0.70
2023-01-17T23:56:49.261Z,-0.60
